Time;durP1;ratioP1;P1;durP2;ratioP2;P2;SDS_P1;SDS_P2;PMS_P1;PMS_P2;Temp;Humidity;BMP_temperature;BMP_pressure;BME280_temperature;BME280_humidity;BME280_pressure;Samples;Min_cycle;Max_cycle;Signal;HPM_P1;HPM_P2
2024/01/30 00:01:16;;;;;;;6.17;3.40;;;8.50;99.90;;;;;;5037690;28;20461;-70
2024/01/30 00:03:43;;;;;;;5.33;3.70;;;8.50;99.90;;;;;;5040052;28;20466;-70
2024/01/30 00:06:10;;;;;;;5.93;3.80;;;8.40;99.90;;;;;;5025215;28;20477;-71
2024/01/30 00:08:38;;;;;;;3.50;3.10;;;8.40;99.90;;;;;;5039181;28;20441;-71
2024/01/30 00:11:05;;;;;;;7.90;4.03;;;8.40;99.90;;;;;;5035764;28;20446;-70
2024/01/30 00:13:32;;;;;;;5.00;3.60;;;8.30;99.90;;;;;;5039773;28;20523;-71
2024/01/30 00:15:58;;;;;;;11.03;4.40;;;8.20;99.90;;;;;;5041484;28;20488;-70
2024/01/30 00:18:25;;;;;;;4.87;3.70;;;8.20;99.90;;;;;;5037727;28;20459;-70
2024/01/30 00:20:52;;;;;;;6.20;3.23;;;8.20;99.90;;;;;;5038080;28;20516;-70
2024/01/30 00:23:19;;;;;;;4.93;3.50;;;8.30;99.90;;;;;;5038506;28;20465;-72
2024/01/30 00:25:47;;;;;;;7.80;4.30;;;8.10;99.90;;;;;;5037860;28;20491;-70
2024/01/30 00:28:14;;;;;;;4.03;3.43;;;8.10;99.90;;;;;;5037252;28;21093;-70
2024/01/30 00:30:41;;;;;;;5.13;3.70;;;8.10;99.90;;;;;;5036880;28;20459;-71
2024/01/30 00:33:08;;;;;;;4.17;3.47;;;8.10;99.90;;;;;;5039116;28;20450;-70
2024/01/30 00:35:34;;;;;;;6.20;4.53;;;8.00;99.90;;;;;;5035064;28;20453;-70
2024/01/30 00:38:01;;;;;;;4.67;3.20;;;8.00;99.90;;;;;;5035452;28;21127;-70
2024/01/30 00:40:28;;;;;;;3.30;2.80;;;8.00;99.90;;;;;;5027818;28;20475;-70
2024/01/30 00:42:56;;;;;;;6.10;3.50;;;7.90;99.90;;;;;;5039170;28;20458;-70
2024/01/30 00:45:23;;;;;;;4.83;3.63;;;7.90;99.90;;;;;;5035906;28;20874;-70
2024/01/30 00:47:50;;;;;;;5.00;3.00;;;7.90;99.90;;;;;;5035258;28;20448;-69
2024/01/30 00:50:17;;;;;;;4.53;3.30;;;7.90;99.90;;;;;;5039152;28;20796;-70
2024/01/30 00:52:44;;;;;;;4.73;3.57;;;7.90;99.90;;;;;;5036929;28;20431;-70
2024/01/30 00:55:12;;;;;;;7.10;4.67;;;7.90;99.90;;;;;;5031734;28;20481;-70
2024/01/30 00:57:39;;;;;;;4.37;3.77;;;7.80;99.90;;;;;;5037623;28;20469;-70
2024/01/30 01:00:09;;;;;;;5.83;4.80;;;7.90;99.90;;;;;;5038831;28;20464;-70
2024/01/30 01:02:36;;;;;;;5.37;4.03;;;7.90;99.90;;;;;;5039352;28;20577;-70
2024/01/30 01:05:02;;;;;;;6.43;5.50;;;7.90;99.90;;;;;;5036188;28;20459;-70
2024/01/30 01:07:29;;;;;;;6.67;4.27;;;7.90;99.90;;;;;;5032876;28;20532;-71
2024/01/30 01:09:56;;;;;;;6.57;4.60;;;7.90;99.90;;;;;;5033518;28;21036;-70
2024/01/30 01:12:23;;;;;;;5.03;3.60;;;8.00;99.90;;;;;;5038013;28;20532;-69
2024/01/30 01:14:50;;;;;;;4.37;3.60;;;8.00;99.90;;;;;;5043229;28;20968;-69
2024/01/30 01:17:18;;;;;;;6.17;4.50;;;7.90;99.90;;;;;;5038460;28;20467;-69
2024/01/30 01:19:45;;;;;;;4.40;3.83;;;7.90;99.90;;;;;;5035999;28;20457;-70
2024/01/30 01:22:12;;;;;;;6.00;3.40;;;7.90;99.90;;;;;;5041705;28;20482;-72
2024/01/30 01:24:39;;;;;;;8.07;4.37;;;7.90;99.90;;;;;;5036586;28;20945;-70
2024/01/30 01:27:06;;;;;;;5.37;3.50;;;7.90;99.90;;;;;;5031814;28;21158;-69
2024/01/30 01:29:33;;;;;;;4.07;3.50;;;7.80;99.90;;;;;;5034706;28;20434;-70
2024/01/30 01:32:00;;;;;;;4.73;3.67;;;7.80;99.90;;;;;;5038520;28;20432;-70
2024/01/30 01:34:28;;;;;;;3.90;3.40;;;7.90;99.90;;;;;;5035373;28;20466;-71
2024/01/30 01:36:55;;;;;;;5.33;3.30;;;7.90;99.90;;;;;;5033852;28;20995;-71
2024/01/30 01:39:23;;;;;;;7.00;4.20;;;7.90;99.90;;;;;;5039172;28;20438;-70
2024/01/30 01:41:49;;;;;;;5.10;3.70;;;7.90;99.90;;;;;;5036122;28;20489;-71
2024/01/30 01:44:16;;;;;;;9.20;4.93;;;7.80;99.90;;;;;;5035586;28;20461;-70
2024/01/30 01:46:43;;;;;;;4.20;3.80;;;7.70;99.90;;;;;;5036904;28;20843;-71
2024/01/30 01:49:11;;;;;;;5.07;2.80;;;7.70;99.90;;;;;;5033557;28;20441;-70
2024/01/30 01:51:40;;;;;;;9.60;4.47;;;7.70;99.90;;;;;;5026689;28;21609;-70
2024/01/30 01:54:08;;;;;;;6.30;3.33;;;7.70;99.90;;;;;;5016305;28;20507;-71
2024/01/30 01:56:35;;;;;;;6.30;4.40;;;7.70;99.90;;;;;;5035058;28;20519;-70
2024/01/30 01:59:08;;;;;;;7.50;4.83;;;7.70;99.90;;;;;;5359980;22;20495;-70
2024/01/30 02:01:35;;;;;;;6.90;4.27;;;7.70;99.90;;;;;;5089335;28;20456;-70
2024/01/30 02:04:02;;;;;;;5.07;3.90;;;7.60;99.90;;;;;;5092116;28;20468;-70
2024/01/30 02:06:29;;;;;;;6.17;4.20;;;7.60;99.90;;;;;;5074933;28;20455;-69
2024/01/30 02:08:57;;;;;;;9.53;5.43;;;7.60;99.90;;;;;;5074726;28;21050;-70
2024/01/30 02:11:24;;;;;;;6.03;4.33;;;7.60;99.90;;;;;;5075908;28;20459;-69
2024/01/30 02:13:51;;;;;;;7.00;3.97;;;7.70;99.90;;;;;;5075543;28;20429;-70
2024/01/30 02:16:18;;;;;;;5.67;3.70;;;7.70;99.90;;;;;;5078477;28;20455;-70
2024/01/30 02:18:47;;;;;;;9.73;4.57;;;7.70;99.90;;;;;;5079436;28;20439;-70
2024/01/30 02:21:16;;;;;;;8.40;4.80;;;7.60;99.90;;;;;;5078153;28;20440;-70
2024/01/30 02:23:45;;;;;;;9.57;4.47;;;7.70;99.90;;;;;;5068027;28;20448;-70
2024/01/30 02:26:12;;;;;;;14.87;5.00;;;7.70;99.90;;;;;;5086160;28;20463;-70
2024/01/30 02:28:38;;;;;;;5.67;4.43;;;7.70;99.90;;;;;;5076454;28;20489;-70
2024/01/30 02:31:05;;;;;;;7.37;3.50;;;7.60;99.90;;;;;;5079729;28;20468;-70
2024/01/30 02:33:32;;;;;;;6.70;5.60;;;7.60;99.90;;;;;;5079358;28;20453;-70
2024/01/30 02:35:59;;;;;;;5.60;4.30;;;7.60;99.90;;;;;;5085328;28;20480;-70
2024/01/30 02:38:28;;;;;;;8.30;4.70;;;7.60;99.90;;;;;;5076355;28;20922;-70
2024/01/30 02:40:55;;;;;;;6.50;4.00;;;7.60;99.90;;;;;;5076149;28;20461;-70
2024/01/30 02:43:24;;;;;;;6.33;4.20;;;7.70;99.90;;;;;;5069550;28;20474;-70
2024/01/30 02:45:51;;;;;;;10.07;4.90;;;7.50;99.90;;;;;;5075454;28;20527;-70
2024/01/30 02:48:17;;;;;;;8.17;4.20;;;7.50;99.90;;;;;;5075493;28;20547;-70
2024/01/30 02:50:45;;;;;;;12.67;4.37;;;7.50;99.90;;;;;;5080077;28;20447;-70
2024/01/30 02:53:12;;;;;;;7.03;4.37;;;7.50;99.90;;;;;;5064130;28;20817;-70
2024/01/30 02:55:40;;;;;;;6.23;3.33;;;7.40;99.90;;;;;;5074954;28;20460;-70
2024/01/30 02:58:09;;;;;;;4.43;3.50;;;7.40;99.90;;;;;;5071094;28;20811;-70
2024/01/30 03:00:36;;;;;;;6.53;3.80;;;7.50;99.90;;;;;;5072993;28;20453;-70
2024/01/30 03:03:02;;;;;;;8.90;3.80;;;7.40;99.90;;;;;;5061870;28;20460;-70
2024/01/30 03:05:29;;;;;;;6.43;3.77;;;7.50;99.90;;;;;;5072457;28;20510;-70
2024/01/30 03:07:56;;;;;;;8.73;5.07;;;7.40;99.90;;;;;;5064369;28;20915;-70
2024/01/30 03:10:23;;;;;;;5.57;4.00;;;7.50;99.90;;;;;;5055349;28;20469;-70
2024/01/30 03:12:51;;;;;;;12.30;4.50;;;7.40;99.90;;;;;;5076440;28;20477;-70
2024/01/30 03:15:17;;;;;;;5.03;3.87;;;7.40;99.90;;;;;;5075651;28;20477;-70
2024/01/30 03:17:44;;;;;;;5.47;4.60;;;7.50;99.90;;;;;;5066524;28;20458;-69
2024/01/30 03:20:15;;;;;;;10.90;4.70;;;7.50;99.90;;;;;;5080878;28;20444;-69
2024/01/30 03:22:41;;;;;;;5.90;4.27;;;7.60;99.90;;;;;;5071988;28;20453;-70
2024/01/30 03:25:08;;;;;;;5.93;4.33;;;7.60;99.90;;;;;;5071040;28;20486;-69
2024/01/30 03:27:35;;;;;;;9.23;4.70;;;7.60;99.90;;;;;;5082610;28;20443;-69
2024/01/30 03:30:04;;;;;;;8.80;4.20;;;7.60;99.90;;;;;;5078066;28;20472;-69
2024/01/30 03:32:30;;;;;;;5.90;4.00;;;7.70;99.90;;;;;;5075524;28;21402;-69
2024/01/30 03:34:58;;;;;;;11.00;4.60;;;7.70;99.90;;;;;;5084917;28;20451;-69
2024/01/30 03:37:24;;;;;;;5.63;3.83;;;7.70;99.90;;;;;;5074786;28;20458;-69
2024/01/30 03:39:51;;;;;;;8.10;4.60;;;7.70;99.90;;;;;;5079752;28;20930;-69
2024/01/30 03:42:18;;;;;;;5.43;3.70;;;7.70;99.90;;;;;;5070670;28;22384;-69
2024/01/30 03:44:44;;;;;;;9.13;4.27;;;7.90;99.90;;;;;;5074935;28;20457;-69
2024/01/30 03:47:12;;;;;;;5.20;4.00;;;7.80;99.90;;;;;;5077933;28;20921;-69
2024/01/30 03:49:39;;;;;;;8.17;4.40;;;7.80;99.90;;;;;;5082177;28;20440;-69
2024/01/30 03:52:06;;;;;;;6.77;3.83;;;7.80;99.90;;;;;;5080995;28;20428;-69
2024/01/30 03:54:33;;;;;;;9.80;4.87;;;7.80;99.90;;;;;;5079149;28;20867;-69
2024/01/30 03:57:00;;;;;;;10.00;4.77;;;7.90;99.90;;;;;;5069194;28;20436;-70
2024/01/30 03:59:26;;;;;;;6.10;4.87;;;8.00;99.90;;;;;;5080604;28;20517;-70
2024/01/30 04:01:53;;;;;;;6.00;3.67;;;8.00;99.90;;;;;;5077885;28;20461;-70
2024/01/30 04:04:24;;;;;;;14.70;3.83;;;8.00;99.90;;;;;;5078851;28;20452;-70
2024/01/30 04:06:51;;;;;;;7.07;3.97;;;7.90;99.90;;;;;;5080992;28;20852;-70
2024/01/30 04:09:18;;;;;;;7.33;3.90;;;7.80;99.90;;;;;;5080225;28;20458;-70
2024/01/30 04:11:45;;;;;;;6.47;3.40;;;7.90;99.90;;;;;;5076587;28;21028;-70
2024/01/30 04:14:12;;;;;;;6.33;3.47;;;7.90;99.90;;;;;;5077763;28;20457;-70
2024/01/30 04:16:38;;;;;;;5.77;5.37;;;8.10;99.90;;;;;;5078570;28;20983;-71
2024/01/30 04:19:05;;;;;;;5.53;3.90;;;8.10;99.90;;;;;;5070879;28;20512;-70
2024/01/30 04:21:33;;;;;;;6.67;4.17;;;8.10;99.90;;;;;;5080056;28;21225;-70
2024/01/30 04:24:00;;;;;;;5.70;3.87;;;8.10;99.90;;;;;;5075056;28;20486;-70
2024/01/30 04:26:27;;;;;;;10.97;3.67;;;8.20;99.90;;;;;;5068373;28;20477;-70
2024/01/30 04:28:53;;;;;;;5.43;3.53;;;8.40;99.90;;;;;;5074468;28;20479;-70
2024/01/30 04:31:20;;;;;;;6.47;4.40;;;8.40;99.90;;;;;;5075142;28;20453;-70
2024/01/30 04:33:47;;;;;;;4.87;3.90;;;8.60;99.90;;;;;;5074978;28;20433;-70
2024/01/30 04:36:14;;;;;;;4.83;3.07;;;8.70;99.90;;;;;;5075631;28;20460;-70
2024/01/30 04:38:42;;;;;;;3.60;2.97;;;8.80;99.90;;;;;;5074329;28;20431;-70
2024/01/30 04:41:08;;;;;;;5.03;2.43;;;8.90;99.90;;;;;;5076163;28;20440;-70
2024/01/30 04:43:35;;;;;;;7.73;3.57;;;9.10;99.90;;;;;;5082404;28;20489;-70
2024/01/30 04:46:02;;;;;;;4.67;2.83;;;9.20;99.90;;;;;;5073906;28;20459;-70
2024/01/30 04:48:29;;;;;;;8.00;3.50;;;9.40;99.90;;;;;;5067062;28;20493;-70
2024/01/30 04:50:56;;;;;;;5.30;3.30;;;9.20;99.90;;;;;;5072970;28;20994;-70
2024/01/30 04:53:23;;;;;;;5.60;3.07;;;9.30;99.90;;;;;;5075264;28;20457;-70
2024/01/30 04:55:51;;;;;;;3.70;2.40;;;9.40;99.90;;;;;;5075395;28;20494;-70
2024/01/30 04:58:17;;;;;;;3.20;2.60;;;9.40;99.90;;;;;;5079276;28;20848;-70
2024/01/30 05:00:45;;;;;;;6.50;3.17;;;9.40;99.90;;;;;;5075280;28;21030;-70
2024/01/30 05:03:12;;;;;;;5.03;4.03;;;9.30;99.90;;;;;;5081496;28;20475;-70
2024/01/30 05:05:39;;;;;;;5.40;3.03;;;9.40;99.90;;;;;;5075654;28;20486;-70
2024/01/30 05:08:06;;;;;;;4.20;3.80;;;9.50;99.90;;;;;;5079444;28;20458;-70
2024/01/30 05:10:33;;;;;;;4.53;3.47;;;9.30;99.90;;;;;;5076949;28;20437;-69
2024/01/30 05:13:01;;;;;;;5.60;3.40;;;9.50;99.90;;;;;;5074230;28;20446;-69
2024/01/30 05:15:28;;;;;;;3.40;2.43;;;9.40;99.90;;;;;;5067760;28;20452;-69
2024/01/30 05:17:55;;;;;;;6.67;3.60;;;9.50;99.90;;;;;;5076143;28;20850;-70
2024/01/30 05:20:21;;;;;;;4.07;2.67;;;9.60;99.90;;;;;;5070685;28;20464;-71
2024/01/30 05:22:48;;;;;;;4.73;3.07;;;9.70;99.90;;;;;;5075056;28;20440;-70
2024/01/30 05:25:15;;;;;;;6.00;3.43;;;9.60;99.90;;;;;;5074044;28;20953;-70
2024/01/30 05:27:42;;;;;;;4.90;3.50;;;9.60;99.90;;;;;;5074577;28;20462;-70
2024/01/30 05:30:11;;;;;;;3.73;3.33;;;9.60;99.90;;;;;;5084104;28;20806;-69
2024/01/30 05:32:38;;;;;;;5.33;2.73;;;9.60;99.90;;;;;;5080422;28;20946;-70
2024/01/30 05:35:05;;;;;;;3.97;3.30;;;9.60;99.90;;;;;;5076039;28;20475;-70
2024/01/30 05:37:32;;;;;;;4.33;3.90;;;9.50;99.90;;;;;;5072545;28;20436;-70
2024/01/30 05:39:58;;;;;;;3.03;2.33;;;9.50;99.90;;;;;;5067951;28;20470;-71
2024/01/30 05:42:25;;;;;;;4.00;3.13;;;9.30;99.90;;;;;;5079601;28;20460;-70
2024/01/30 05:44:52;;;;;;;5.60;3.80;;;9.10;99.90;;;;;;5078302;28;20508;-70
2024/01/30 05:47:20;;;;;;;8.37;4.47;;;9.10;99.90;;;;;;5075384;28;20467;-70
2024/01/30 05:49:47;;;;;;;5.50;3.83;;;9.10;99.90;;;;;;5076588;28;20493;-70
2024/01/30 05:52:15;;;;;;;5.63;3.53;;;9.00;99.90;;;;;;5077358;28;20516;-70
2024/01/30 05:54:41;;;;;;;5.60;4.43;;;8.90;99.90;;;;;;5081607;28;20439;-69
2024/01/30 05:57:08;;;;;;;6.27;3.50;;;8.80;99.90;;;;;;5079202;28;20458;-70
2024/01/30 05:59:36;;;;;;;11.93;3.67;;;8.80;99.90;;;;;;5069827;28;20469;-71
2024/01/30 06:02:02;;;;;;;10.03;3.60;;;8.90;99.90;;;;;;5078524;28;20470;-70
2024/01/30 06:04:31;;;;;;;7.20;4.23;;;8.90;99.90;;;;;;5082281;28;20459;-70
2024/01/30 06:06:57;;;;;;;6.77;3.87;;;8.80;99.90;;;;;;5080889;28;20991;-71
2024/01/30 06:09:24;;;;;;;4.80;4.33;;;8.80;99.90;;;;;;5077865;28;20456;-71
2024/01/30 06:11:51;;;;;;;4.97;4.20;;;8.80;99.90;;;;;;5078671;28;20436;-71
2024/01/30 06:14:17;;;;;;;7.13;3.57;;;8.80;99.90;;;;;;5074597;28;20488;-71
2024/01/30 06:16:44;;;;;;;8.30;3.40;;;8.80;99.90;;;;;;5081256;28;20485;-71
2024/01/30 06:19:11;;;;;;;5.00;4.30;;;8.90;99.90;;;;;;5078631;28;20894;-70
2024/01/30 06:21:39;;;;;;;4.57;4.17;;;9.00;99.90;;;;;;5075459;28;20439;-70
2024/01/30 06:24:06;;;;;;;3.00;2.33;;;9.00;99.90;;;;;;5083194;28;20453;-71
2024/01/30 06:26:33;;;;;;;6.37;3.70;;;8.90;99.90;;;;;;5084055;28;20962;-72
2024/01/30 06:29:00;;;;;;;8.53;4.20;;;9.10;99.90;;;;;;5082676;28;20436;-69
2024/01/30 06:31:26;;;;;;;4.60;3.43;;;9.20;99.90;;;;;;5084477;28;20466;-70
2024/01/30 06:33:53;;;;;;;7.97;3.80;;;9.10;99.90;;;;;;5081286;28;20432;-70
2024/01/30 06:36:20;;;;;;;5.20;3.77;;;9.30;99.90;;;;;;5084961;28;20452;-69
2024/01/30 06:38:48;;;;;;;5.47;3.13;;;9.40;99.90;;;;;;5079669;28;20450;-70
2024/01/30 06:41:15;;;;;;;4.27;3.13;;;9.40;99.90;;;;;;5079217;28;20502;-70
2024/01/30 06:43:41;;;;;;;6.03;3.20;;;9.40;99.90;;;;;;5082864;28;20988;-71
2024/01/30 06:46:08;;;;;;;7.23;4.43;;;9.50;99.90;;;;;;5078771;28;20843;-71
2024/01/30 06:48:35;;;;;;;3.07;2.60;;;9.60;99.90;;;;;;5077627;28;20454;-71
2024/01/30 06:51:02;;;;;;;3.93;3.37;;;9.60;99.90;;;;;;5084278;28;20464;-71
2024/01/30 06:53:28;;;;;;;6.80;3.20;;;9.70;99.90;;;;;;5084342;28;21296;-71
2024/01/30 06:55:56;;;;;;;3.40;3.10;;;9.60;99.90;;;;;;5080725;28;20481;-71
2024/01/30 06:58:23;;;;;;;6.73;2.80;;;9.60;99.90;;;;;;5071853;28;20439;-71
2024/01/30 07:00:50;;;;;;;5.83;3.67;;;9.50;99.90;;;;;;5080273;28;21300;-71
2024/01/30 07:03:16;;;;;;;6.13;3.70;;;9.60;99.90;;;;;;5086196;28;20461;-71
2024/01/30 07:05:43;;;;;;;5.40;3.20;;;9.60;99.90;;;;;;5077726;28;20490;-71
2024/01/30 07:08:13;;;;;;;7.03;3.40;;;9.60;99.90;;;;;;5083311;28;20459;-71
2024/01/30 07:10:40;;;;;;;3.87;3.57;;;9.80;99.90;;;;;;5086067;28;20439;-70
2024/01/30 07:13:09;;;;;;;5.03;3.00;;;9.80;99.90;;;;;;5083883;28;20460;-71
2024/01/30 07:15:36;;;;;;;4.10;2.87;;;9.80;99.90;;;;;;5079358;28;20484;-70
2024/01/30 07:18:04;;;;;;;4.57;2.80;;;9.80;99.90;;;;;;5082587;28;20453;-70
2024/01/30 07:20:31;;;;;;;7.80;4.30;;;10.00;99.90;;;;;;5075649;28;21029;-70
2024/01/30 07:22:58;;;;;;;5.77;3.10;;;10.00;99.90;;;;;;5078979;28;20453;-70
2024/01/30 07:25:26;;;;;;;4.70;3.17;;;10.00;99.90;;;;;;5082772;28;20493;-70
2024/01/30 07:27:53;;;;;;;21.43;4.70;;;10.20;99.90;;;;;;5079020;28;20461;-70
2024/01/30 07:30:21;;;;;;;3.40;3.10;;;10.10;99.90;;;;;;5083272;28;20437;-70
2024/01/30 07:32:48;;;;;;;4.77;3.70;;;10.00;99.90;;;;;;5080486;28;20470;-70
2024/01/30 07:35:15;;;;;;;4.33;3.13;;;10.10;99.90;;;;;;5083584;28;20469;-70
2024/01/30 07:37:42;;;;;;;11.47;4.13;;;10.20;99.90;;;;;;5084008;28;20462;-70
2024/01/30 07:40:12;;;;;;;6.13;4.20;;;10.20;99.90;;;;;;5081892;28;20455;-70
2024/01/30 07:42:38;;;;;;;7.00;3.60;;;10.30;99.90;;;;;;5081292;28;20480;-70
2024/01/30 07:45:06;;;;;;;3.80;3.50;;;10.10;99.90;;;;;;5080926;28;20484;-70
2024/01/30 07:47:34;;;;;;;9.23;3.67;;;10.10;99.90;;;;;;5078214;28;20923;-70
2024/01/30 07:50:01;;;;;;;7.23;4.30;;;10.10;99.90;;;;;;5079097;28;20436;-69
2024/01/30 07:52:28;;;;;;;5.93;3.53;;;10.20;99.90;;;;;;5082084;28;21025;-70
2024/01/30 07:54:55;;;;;;;4.23;2.70;;;10.20;99.90;;;;;;5079324;28;20445;-70
2024/01/30 08:03:18;;;;;;;7.73;3.57;;;10.40;99.90;;;;;;5084770;28;20435;-71
2024/01/30 08:05:44;;;;;;;10.83;3.30;;;10.40;99.90;;;;;;5080696;28;20506;-71
2024/01/30 08:08:11;;;;;;;7.10;3.10;;;10.40;99.90;;;;;;5078758;28;20458;-71
2024/01/30 08:10:38;;;;;;;7.27;3.77;;;10.50;99.90;;;;;;5079511;28;20436;-71
2024/01/30 08:13:05;;;;;;;4.70;3.23;;;10.60;99.90;;;;;;5079410;28;20552;-70
2024/01/30 08:15:31;;;;;;;7.73;4.47;;;10.60;99.90;;;;;;5079011;28;20478;-70
2024/01/30 08:17:58;;;;;;;6.40;4.53;;;10.60;99.90;;;;;;5081406;28;20462;-71
2024/01/30 08:20:26;;;;;;;6.03;3.30;;;10.60;99.90;;;;;;5077413;28;20518;-70
2024/01/30 08:22:53;;;;;;;4.87;4.00;;;10.80;99.90;;;;;;5081363;28;20474;-70
2024/01/30 08:25:21;;;;;;;4.57;3.63;;;10.80;99.90;;;;;;5079081;28;20882;-70
2024/01/30 08:27:48;;;;;;;3.80;3.13;;;10.70;99.90;;;;;;5083593;28;20459;-70
2024/01/30 08:30:15;;;;;;;7.53;3.20;;;10.80;99.90;;;;;;5079084;28;20461;-70
2024/01/30 08:32:42;;;;;;;5.93;3.77;;;10.80;99.90;;;;;;5082077;28;20900;-70
2024/01/30 08:35:09;;;;;;;10.87;3.80;;;10.80;99.90;;;;;;5078656;28;20593;-70
2024/01/30 08:37:37;;;;;;;7.60;3.90;;;10.90;99.90;;;;;;5082384;28;20515;-70
2024/01/30 08:40:04;;;;;;;3.80;3.30;;;10.80;99.90;;;;;;5078136;28;20464;-70
2024/01/30 08:42:31;;;;;;;8.97;3.83;;;10.90;99.90;;;;;;5084470;28;20898;-71
2024/01/30 08:44:58;;;;;;;4.57;3.33;;;11.00;99.90;;;;;;5080624;28;20481;-71
2024/01/30 08:47:25;;;;;;;7.80;3.97;;;11.10;99.90;;;;;;5080057;28;20435;-71
2024/01/30 08:49:51;;;;;;;4.53;3.43;;;11.20;99.90;;;;;;5080695;28;20570;-71
2024/01/30 08:52:18;;;;;;;16.73;8.70;;;11.20;99.90;;;;;;5078740;28;21102;-71
2024/01/30 08:54:46;;;;;;;7.40;3.50;;;11.20;99.90;;;;;;5079802;28;20470;-71
2024/01/30 08:57:13;;;;;;;5.57;4.90;;;11.20;99.90;;;;;;5079683;28;20425;-70
2024/01/30 08:59:40;;;;;;;23.83;5.73;;;11.20;99.90;;;;;;5075308;28;20986;-71
2024/01/30 09:02:06;;;;;;;7.13;5.20;;;11.20;99.90;;;;;;5076177;28;20573;-70
2024/01/30 09:04:33;;;;;;;7.30;3.20;;;11.30;99.90;;;;;;5075238;28;20479;-70
2024/01/30 09:07:00;;;;;;;9.27;4.40;;;11.20;99.90;;;;;;5072743;28;20469;-70
2024/01/30 09:09:27;;;;;;;6.27;4.23;;;11.20;99.90;;;;;;5079734;28;20461;-70
2024/01/30 09:11:55;;;;;;;5.77;4.00;;;11.10;99.90;;;;;;5081944;28;20467;-71
2024/01/30 09:14:22;;;;;;;5.97;4.10;;;11.20;99.90;;;;;;5078171;28;20577;-71
2024/01/30 09:16:49;;;;;;;4.70;3.07;;;11.40;99.90;;;;;;5075458;28;20481;-70
2024/01/30 09:19:15;;;;;;;5.90;3.43;;;11.40;99.90;;;;;;5072583;28;20519;-70
2024/01/30 09:21:42;;;;;;;4.00;3.00;;;11.50;99.90;;;;;;5077653;28;20453;-71
2024/01/30 09:24:09;;;;;;;5.60;3.87;;;11.40;99.90;;;;;;5080592;28;20457;-70
2024/01/30 09:26:39;;;;;;;7.60;4.37;;;11.50;99.90;;;;;;5077962;28;20492;-72
2024/01/30 09:29:07;;;;;;;4.27;3.53;;;11.50;99.90;;;;;;5073151;28;20458;-71
2024/01/30 09:31:34;;;;;;;5.90;3.90;;;11.60;99.90;;;;;;5077741;28;20449;-71
2024/01/30 09:34:00;;;;;;;4.57;3.70;;;11.70;99.90;;;;;;5081410;28;20475;-70
2024/01/30 09:36:27;;;;;;;4.70;3.13;;;11.80;99.90;;;;;;5080447;28;20493;-71
2024/01/30 09:38:54;;;;;;;4.33;2.80;;;11.80;99.90;;;;;;5080164;28;20742;-71
2024/01/30 09:41:23;;;;;;;4.83;3.60;;;11.90;99.90;;;;;;5083485;28;20432;-70
2024/01/30 09:43:52;;;;;;;4.53;3.80;;;11.90;99.90;;;;;;5075802;28;20467;-71
2024/01/30 09:46:23;;;;;;;8.90;4.13;;;11.90;99.90;;;;;;5068597;28;20470;-70
2024/01/30 09:48:51;;;;;;;5.10;3.17;;;11.90;99.90;;;;;;5073178;28;20462;-70
2024/01/30 09:51:18;;;;;;;5.93;3.73;;;11.90;99.90;;;;;;5077470;28;20451;-70
2024/01/30 09:53:45;;;;;;;6.30;3.60;;;11.90;99.90;;;;;;5079233;28;20469;-70
2024/01/30 09:56:13;;;;;;;2.60;2.40;;;11.90;99.90;;;;;;5083475;28;20564;-70
2024/01/30 09:58:40;;;;;;;4.67;3.40;;;12.00;99.90;;;;;;5080792;28;20454;-70
2024/01/30 10:01:07;;;;;;;8.17;4.30;;;12.00;99.90;;;;;;5077699;28;20552;-70
2024/01/30 10:03:35;;;;;;;4.10;3.70;;;12.10;99.90;;;;;;5077677;28;20460;-70
2024/01/30 10:06:02;;;;;;;5.57;3.30;;;12.20;99.90;;;;;;5079186;28;20492;-71
2024/01/30 10:08:29;;;;;;;8.40;3.17;;;12.30;99.90;;;;;;5080959;28;20447;-70
2024/01/30 10:10:56;;;;;;;3.70;2.80;;;12.40;99.90;;;;;;5077798;28;20546;-70
2024/01/30 10:13:25;;;;;;;6.60;2.93;;;12.70;99.90;;;;;;5080201;28;20458;-70
2024/01/30 10:15:58;;;;;;;3.17;2.80;;;12.90;99.90;;;;;;5075329;28;20619;-70
2024/01/30 10:18:24;;;;;;;6.20;2.70;;;13.10;99.90;;;;;;5083143;28;20461;-71
2024/01/30 10:20:52;;;;;;;5.23;3.10;;;13.20;99.90;;;;;;5078024;28;20892;-71
2024/01/30 10:23:20;;;;;;;6.03;3.37;;;13.30;99.90;;;;;;5080748;28;20436;-71
2024/01/30 10:25:46;;;;;;;2.67;2.47;;;13.30;99.90;;;;;;5075086;28;20493;-69
2024/01/30 10:28:15;;;;;;;6.47;3.70;;;13.30;99.90;;;;;;5079487;28;20457;-70
2024/01/30 10:30:42;;;;;;;5.60;2.70;;;13.50;99.90;;;;;;5075071;28;20457;-71
2024/01/30 10:33:09;;;;;;;3.07;2.37;;;14.20;99.90;;;;;;5080214;28;20465;-70
2024/01/30 10:35:36;;;;;;;3.97;3.00;;;14.70;99.90;;;;;;5078542;28;20473;-71
2024/01/30 10:38:06;;;;;;;5.20;2.97;;;15.00;99.90;;;;;;5081021;28;20466;-71
2024/01/30 10:40:36;;;;;;;3.53;2.20;;;14.90;99.90;;;;;;5077359;28;21004;-71
2024/01/30 10:43:04;;;;;;;3.83;3.20;;;14.90;99.90;;;;;;5081140;28;20465;-70
2024/01/30 10:45:32;;;;;;;4.10;3.73;;;15.00;99.90;;;;;;5073257;28;20489;-71
2024/01/30 10:48:03;;;;;;;3.43;2.30;;;15.40;99.90;;;;;;5081800;28;20560;-71
2024/01/30 10:50:33;;;;;;;4.13;3.00;;;15.80;99.90;;;;;;5082058;28;21129;-71
2024/01/30 10:53:01;;;;;;;3.90;3.00;;;15.80;99.90;;;;;;5077384;28;20540;-71
2024/01/30 10:55:30;;;;;;;5.40;3.77;;;15.80;99.90;;;;;;5087138;28;20473;-72
2024/01/30 10:57:57;;;;;;;5.40;2.10;;;16.10;99.90;;;;;;5089661;28;20480;-71
2024/01/30 11:00:26;;;;;;;6.10;3.20;;;16.00;99.90;;;;;;5087639;28;20461;-70
2024/01/30 11:02:53;;;;;;;4.97;3.10;;;15.90;99.90;;;;;;5085587;28;20461;-71
2024/01/30 11:05:26;;;;;;;2.23;1.67;;;16.40;99.90;;;;;;5083687;28;20488;-72
2024/01/30 11:07:53;;;;;;;4.13;2.43;;;16.90;99.90;;;;;;5082724;28;20483;-70
2024/01/30 11:10:20;;;;;;;4.77;3.03;;;16.90;99.90;;;;;;5086741;28;20470;-70
2024/01/30 11:12:50;;;;;;;6.23;3.30;;;17.10;99.90;;;;;;5089023;28;20839;-70
2024/01/30 11:15:17;;;;;;;2.83;2.50;;;16.70;99.90;;;;;;5085987;28;20483;-70
2024/01/30 11:17:45;;;;;;;3.40;3.10;;;16.30;99.90;;;;;;5086891;28;20454;-71
2024/01/30 11:20:15;;;;;;;5.37;2.83;;;15.80;99.90;;;;;;5090338;28;20449;-71
2024/01/30 11:22:43;;;;;;;224.13;36.40;;;15.40;99.90;;;;;;5086936;28;20465;-71
2024/01/30 11:25:13;;;;;;;27.23;5.00;;;15.20;99.90;;;;;;5085370;28;20833;-72
2024/01/30 11:27:40;;;;;;;4.97;3.03;;;14.90;99.90;;;;;;5083230;28;20472;-71
2024/01/30 11:30:09;;;;;;;4.17;2.40;;;14.60;99.90;;;;;;5082781;28;21015;-71
2024/01/30 11:32:36;;;;;;;5.20;3.10;;;14.50;99.90;;;;;;5077875;28;20462;-71
2024/01/30 11:35:06;;;;;;;65.63;12.23;;;14.50;99.90;;;;;;5084719;28;20640;-71
2024/01/30 11:37:33;;;;;;;6.17;2.90;;;14.50;99.90;;;;;;5084498;28;20487;-70
2024/01/30 11:39:59;;;;;;;3.90;2.90;;;14.40;99.90;;;;;;5084888;28;21871;-71
2024/01/30 11:42:28;;;;;;;5.73;3.77;;;14.40;99.90;;;;;;5080239;28;20465;-71
2024/01/30 11:44:55;;;;;;;12.43;2.87;;;14.50;99.90;;;;;;5086186;28;20932;-71
2024/01/30 11:47:23;;;;;;;6.40;3.17;;;14.60;99.90;;;;;;5078725;28;20971;-71
2024/01/30 11:49:50;;;;;;;4.50;4.03;;;14.30;99.90;;;;;;5083921;28;20476;-71
2024/01/30 11:52:20;;;;;;;59.17;10.77;;;14.30;99.90;;;;;;5087306;28;20469;-71
2024/01/30 11:54:47;;;;;;;6.00;2.80;;;14.20;99.90;;;;;;5081042;28;20454;-70
2024/01/30 11:57:14;;;;;;;5.63;3.30;;;14.00;99.90;;;;;;5085226;28;20466;-70
2024/01/30 11:59:41;;;;;;;22.60;7.57;;;14.00;99.90;;;;;;5085241;28;20469;-70
2024/01/30 12:02:07;;;;;;;53.67;8.83;;;14.00;99.90;;;;;;5088537;28;21132;-71
2024/01/30 12:04:35;;;;;;;8.33;4.20;;;14.00;99.90;;;;;;5083744;28;20480;-70
2024/01/30 12:07:03;;;;;;;7.93;4.53;;;14.00;99.90;;;;;;5086248;28;20460;-71
2024/01/30 12:09:30;;;;;;;3.33;3.00;;;14.00;99.90;;;;;;5085007;28;20964;-71
2024/01/30 12:11:56;;;;;;;6.03;2.90;;;13.90;99.90;;;;;;5086872;28;20884;-71
2024/01/30 12:14:25;;;;;;;5.43;3.47;;;13.80;99.90;;;;;;5082617;28;20984;-71
2024/01/30 12:16:51;;;;;;;5.27;3.80;;;13.70;99.90;;;;;;5086692;28;20508;-71
2024/01/30 12:19:24;;;;;;;3.10;2.17;;;13.90;99.90;;;;;;5086837;28;20462;-71
2024/01/30 12:21:58;;;;;;;5.73;4.17;;;13.90;99.90;;;;;;5083100;28;20458;-71
2024/01/30 12:24:25;;;;;;;3.23;2.80;;;13.80;99.90;;;;;;5085548;28;20823;-70
2024/01/30 12:26:52;;;;;;;7.70;3.37;;;13.80;99.90;;;;;;5081236;28;20485;-72
2024/01/30 12:29:21;;;;;;;6.40;3.70;;;13.70;99.90;;;;;;5083784;28;20457;-71
2024/01/30 12:31:48;;;;;;;4.60;3.40;;;13.50;99.90;;;;;;5084316;28;20473;-71
2024/01/30 12:34:20;;;;;;;19.37;5.40;;;13.50;99.90;;;;;;5083343;28;20784;-71
2024/01/30 12:36:48;;;;;;;3.73;3.30;;;13.60;99.90;;;;;;5084941;28;20560;-71
2024/01/30 12:39:16;;;;;;;5.77;3.10;;;13.60;99.90;;;;;;5083975;28;20460;-71
2024/01/30 12:41:43;;;;;;;6.97;3.67;;;13.60;99.90;;;;;;5086100;28;20908;-71
2024/01/30 12:44:10;;;;;;;5.27;2.60;;;13.60;99.90;;;;;;5085322;28;20827;-70
2024/01/30 12:46:36;;;;;;;6.23;4.03;;;13.70;99.90;;;;;;5084219;28;20485;-71
2024/01/30 12:49:03;;;;;;;8.60;2.60;;;13.80;99.90;;;;;;5086144;28;20491;-71
2024/01/30 12:51:30;;;;;;;5.23;3.90;;;13.80;99.90;;;;;;5082578;28;20520;-70
2024/01/30 12:53:57;;;;;;;6.07;4.53;;;13.70;99.90;;;;;;5088120;28;20848;-70
2024/01/30 12:56:25;;;;;;;7.97;5.30;;;13.80;99.90;;;;;;5085047;28;20462;-71